Time;durP1;ratioP1;P1;durP2;ratioP2;P2;SDS_P1;SDS_P2;PMS_P1;PMS_P2;Temp;Humidity;BMP_temperature;BMP_pressure;BME280_temperature;BME280_humidity;BME280_pressure;Samples;Min_cycle;Max_cycle;Signal;HPM_P1;HPM_P2
2023/04/20 00:03:14;;;;;;;12.10;8.40;;;;;;;2.91;93.03;101014.96;104649;1265;83231;-53
2023/04/20 00:06:54;;;;;;;;;;;;;;;;;;;;;
2023/04/20 00:10:23;;;;;;;;;;;;;;;;;;;;;
2023/04/20 00:14:12;;;;;;;11.40;8.10;;;;;;;3.08;93.60;101020.73;104613;1262;69033;-50
2023/04/20 00:18:01;;;;;;;12.80;8.10;;;;;;;3.15;93.57;101015.91;104625;1262;73094;-52
2023/04/20 00:21:51;;;;;;;10.90;7.40;;;;;;;3.16;93.45;101013.33;104669;1267;84390;-50
2023/04/20 00:25:02;;;;;;;16.40;9.10;;;;;;;3.18;93.27;101017.82;104831;1261;73766;-51
2023/04/20 00:28:42;;;;;;;12.70;8.30;;;;;;;3.29;93.83;101013.19;104841;1265;69272;-51
2023/04/20 00:32:31;;;;;;;12.00;8.70;;;;;;;3.35;93.94;101017.02;104898;1260;70053;-50
2023/04/20 00:36:19;;;;;;;11.70;8.90;;;;;;;3.39;93.70;101013.55;104893;1260;76868;-51
2023/04/20 00:39:30;;;;;;;11.80;8.50;;;;;;;3.43;93.77;101009.59;104896;1262;83504;-53
2023/04/20 00:43:20;;;;;;;14.20;10.10;;;;;;;3.47;94.08;101004.42;104962;1259;72705;-50
2023/04/20 00:46:59;;;;;;;;;;;;;;;;;;;;;
2023/04/20 00:50:30;;;;;;;;;;;;;;;;;;;;;
2023/04/20 00:54:08;;;;;;;13.00;9.70;;;;;;;3.70;94.29;101001.16;104942;1262;73139;-56
2023/04/20 00:57:39;;;;;;;;;;;;;;;;;;;;;
2023/04/20 01:01:17;;;;;;;15.50;10.70;;;;;;;3.77;94.51;100995.45;104831;1260;73914;-53
2023/04/20 01:04:58;;;;;;;15.70;10.90;;;;;;;3.82;94.61;100989.41;105436;1256;69271;-55
2023/04/20 01:08:24;;;;;;;15.60;11.30;;;;;;;3.88;94.59;100995.46;105463;1251;69989;-50
2023/04/20 01:12:03;;;;;;;;;;;;;;;;;;;;;
2023/04/20 01:15:25;;;;;;;;;;;;;;;;;;;;;
2023/04/20 01:19:02;;;;;;;19.90;13.20;;;;;;;4.02;94.84;101011.54;105612;1254;73197;-53
2023/04/20 01:22:57;;;;;;;;;;;;;;;;;;;;;
2023/04/20 01:26:05;;;;;;;;;;;;;;;;;;;;;
2023/04/20 01:29:55;;;;;;;18.80;12.10;;;;;;;4.05;94.57;101012.91;105562;1251;73039;-55
2023/04/20 01:33:23;;;;;;;22.00;13.20;;;;;;;4.05;94.51;101011.19;105575;1254;83219;-51
2023/04/20 01:37:02;;;;;;;18.20;11.70;;;;;;;4.06;94.29;101012.58;105531;1251;72802;-55
2023/04/20 01:40:26;;;;;;;17.50;13.20;;;;;;;4.09;94.55;101008.09;105425;1251;69877;-51
2023/04/20 01:44:09;;;;;;;20.50;13.20;;;;;;;4.12;94.61;101002.19;105434;1251;70008;-51
2023/04/20 01:51:08;;;;;;;;;;;;;;;;;;;;;
2023/04/20 01:54:58;;;;;;;24.20;14.70;;;;;;;4.16;94.48;100996.50;105470;1251;72811;-51
2023/04/20 01:58:28;;;;;;;;;;;;;;;;;;;;;
2023/04/20 02:02:03;;;;;;;19.20;13.80;;;;;;;4.15;94.84;100999.77;105528;1251;69894;-51
2023/04/20 02:05:27;;;;;;;;;;;;;;;;;;;;;
2023/04/20 02:08:52;;;;;;;22.30;15.30;;;;;;;4.15;95.04;100992.68;105506;1251;83818;-50
2023/04/20 02:12:08;;;;;;;23.80;15.30;;;;;;;4.16;94.77;100988.02;105483;1251;73747;-51
2023/04/20 02:15:38;;;;;;;23.10;15.00;;;;;;;4.15;94.94;100984.55;105433;1254;69793;-57
2023/04/20 02:19:06;;;;;;;25.80;15.80;;;;;;;4.13;94.83;100986.29;105584;1256;69810;-52
2023/04/20 02:22:24;;;;;;;;;;;;;;;4.12;94.90;100984.73;105133;1258;73041;-53
2023/04/20 02:26:02;;;;;;;;;;;;;;;;;;;;;
2023/04/20 02:29:45;;;;;;;23.20;16.40;;;;;;;4.11;95.05;100975.74;105422;1254;72790;-54
2023/04/20 02:32:48;;;;;;;27.70;16.50;;;;;;;4.07;94.80;100974.02;105244;1254;69866;-50
2023/04/20 02:36:15;;;;;;;26.00;16.60;;;;;;;4.02;94.72;100979.72;105447;1257;69067;-52
2023/04/20 02:39:28;;;;;;;24.10;16.20;;;;;;;3.99;94.71;100985.96;105533;1254;73975;-52
2023/04/20 02:42:37;;;;;;;;;;;;;;;;;;;;;
2023/04/20 02:46:09;;;;;;;23.60;16.00;;;;;;;3.97;94.91;100986.64;105735;1254;73663;-51
2023/04/20 02:49:33;;;;;;;25.10;17.10;;;;;;;3.96;95.18;100980.06;105318;1254;69138;-49
2023/04/20 02:53:08;;;;;;;;;;;;;;;;;;;;;
2023/04/20 02:56:40;;;;;;;27.60;17.80;;;;;;;4.00;95.68;100982.66;105014;1257;74209;-50
2023/04/20 03:00:24;;;;;;;27.10;17.20;;;;;;;4.04;95.48;100975.90;104977;1262;83883;-54
2023/04/20 03:04:03;;;;;;;25.50;17.60;;;;;;;4.04;95.23;100969.85;104952;1257;74153;-53
2023/04/20 03:07:38;;;;;;;27.90;17.50;;;;;;;4.02;95.18;100968.32;104968;1257;69937;-51
2023/04/20 03:11:19;;;;;;;25.10;17.40;;;;;;;4.02;95.39;100974.55;104605;1262;69827;-54
2023/04/20 03:14:47;;;;;;;;;;;;;;;;;;;;;
2023/04/20 03:18:16;;;;;;;;;;;;;;;4.02;95.47;100972.98;104353;1265;84408;-54
2023/04/20 03:21:58;;;;;;;28.90;18.10;;;;;;;4.03;95.84;100974.88;104787;1263;73123;-51
2023/04/20 03:25:13;;;;;;;;;;;;;;;;;;;;;
2023/04/20 03:28:56;;;;;;;25.80;18.70;;;;;;;4.00;95.82;100975.92;104451;1267;69904;-51
2023/04/20 03:32:07;;;;;;;25.00;18.80;;;;;;;3.99;95.66;100976.77;104445;1270;72032;-51
2023/04/20 03:35:42;;;;;;;29.40;19.10;;;;;;;3.98;95.75;100974.19;104652;1270;82968;-51
2023/04/20 03:39:34;;;;;;;26.20;18.10;;;;;;;4.01;95.81;100976.78;104477;1266;71875;-57
2023/04/20 03:43:15;;;;;;;;;;;;;;;;;;;;;
2023/04/20 03:46:50;;;;;;;27.10;19.50;;;;;;;4.07;96.13;100975.39;104222;1266;69147;-51
2023/04/20 03:50:17;;;;;;;;;;;;;;;;;;;;;
2023/04/20 03:53:33;;;;;;;;;;;;;;;;;;;;;
2023/04/20 03:57:15;;;;;;;29.10;19.50;;;;;;;4.11;96.58;100980.58;104735;1260;72938;-51
2023/04/20 04:00:22;;;;;;;;;;;;;;;;;;;;;
2023/04/20 04:03:29;;;;;;;25.20;18.70;;;;;;;4.14;96.39;100987.66;104904;1261;69098;-51
2023/04/20 04:06:20;;;;;;;26.80;18.70;;;;;;;4.16;96.56;100986.11;105200;1265;74124;-54
2023/04/20 04:09:34;;;;;;;28.00;20.80;;;;;;;4.19;96.57;100985.05;105603;1256;83284;-50
2023/04/20 04:12:59;;;;;;;28.70;20.00;;;;;;;4.24;96.75;100982.12;105790;1254;73021;-54
2023/04/20 04:15:55;;;;;;;23.90;19.10;;;;;;;4.27;96.69;100985.05;105617;1256;69205;-56
2023/04/20 04:18:30;;;;;;;28.50;19.60;;;;;;;4.31;97.01;100992.31;105590;1256;69907;-50
2023/04/20 04:21:05;;;;;;;26.90;20.70;;;;;;;4.35;96.76;100993.34;105754;1256;74456;-49
2023/04/20 04:24:03;;;;;;;28.20;20.00;;;;;;;4.39;96.94;100991.25;105679;1252;82503;-49
2023/04/20 04:27:04;;;;;;;25.80;19.50;;;;;;;4.45;96.98;100988.99;105550;1251;72874;-50
2023/04/20 04:29:44;;;;;;;26.90;19.60;;;;;;;4.50;96.78;100983.95;105798;1257;70034;-50
2023/04/20 04:32:25;;;;;;;31.10;21.30;;;;;;;4.54;96.55;100989.66;105914;1251;70028;-50
2023/04/20 04:35:24;;;;;;;;;;;;;;;;;;;;;
2023/04/20 04:38:32;;;;;;;22.90;17.40;;;;;;;4.61;96.42;100992.41;105577;1253;82416;-50
2023/04/20 04:41:50;;;;;;;25.80;18.80;;;;;;;4.61;96.31;100992.23;105559;1254;73726;-50
2023/04/20 04:44:38;;;;;;;;;;;;;;;;;;;;;
2023/04/20 04:47:13;;;;;;;25.60;19.60;;;;;;;4.62;96.45;100986.01;105462;1257;70073;-54
2023/04/20 04:49:52;;;;;;;26.70;17.70;;;;;;;4.64;96.66;100987.89;105870;1253;74099;-51
2023/04/20 04:52:36;;;;;;;25.30;18.30;;;;;;;4.68;96.56;100986.15;105666;1254;82653;-47
2023/04/20 04:55:47;;;;;;;25.40;17.60;;;;;;;4.72;96.50;100986.31;105550;1254;73853;-48
2023/04/20 04:58:29;;;;;;;28.10;19.10;;;;;;;4.79;96.32;100990.62;105795;1254;69928;-48
2023/04/20 05:01:26;;;;;;;;;;;;;;;;;;;;;
2023/04/20 05:04:33;;;;;;;;;;;;;;;;;;;;;
2023/04/20 05:07:20;;;;;;;26.40;18.80;;;;;;;4.85;96.02;101000.45;106003;1251;83109;-50
2023/04/20 05:10:27;;;;;;;26.70;19.30;;;;;;;4.86;96.36;101007.73;105620;1252;72811;-51
2023/04/20 05:13:29;;;;;;;27.00;19.10;;;;;;;4.89;96.17;101020.02;105608;1256;69935;-52
2023/04/20 05:16:28;;;;;;;28.70;19.00;;;;;;;4.90;96.46;101023.98;105605;1254;69998;-51
2023/04/20 05:19:20;;;;;;;;;;;;;;;;;;;;;
2023/04/20 05:22:52;;;;;;;26.80;19.30;;;;;;;4.98;96.37;101031.93;105764;1255;82326;-49
2023/04/20 05:26:05;;;;;;;27.10;17.60;;;;;;;4.97;95.90;101028.48;105316;1254;73704;-50
2023/04/20 05:28:41;;;;;;;28.70;19.50;;;;;;;4.98;95.72;101028.11;105546;1252;70063;-53
2023/04/20 05:31:44;;;;;;;30.40;20.10;;;;;;;4.98;95.77;101023.10;105810;1255;69915;-48
2023/04/20 05:34:24;;;;;;;26.80;18.90;;;;;;;5.00;95.63;101023.08;105896;1254;74256;-51
2023/04/20 05:37:12;;;;;;;26.50;19.10;;;;;;;5.03;95.91;101021.69;105578;1255;83398;-47
2023/04/20 05:39:53;;;;;;;30.20;20.90;;;;;;;5.06;95.99;101025.14;105612;1256;73724;-51
2023/04/20 05:42:51;;;;;;;30.50;21.00;;;;;;;5.11;95.98;101021.14;105558;1254;70014;-49
2023/04/20 05:45:28;;;;;;;31.20;21.10;;;;;;;5.07;95.83;101029.64;105617;1255;70005;-49
2023/04/20 05:48:32;;;;;;;30.80;20.90;;;;;;;5.05;95.71;101032.94;105653;1254;75161;-50
2023/04/20 05:51:33;;;;;;;;;;;;;;;;;;;;;
2023/04/20 05:54:26;;;;;;;31.10;22.30;;;;;;;5.03;96.06;101039.52;105637;1257;71994;-50
2023/04/20 05:57:04;;;;;;;33.50;22.20;;;;;;;5.02;96.06;101039.54;105609;1251;69988;-51
2023/04/20 05:59:54;;;;;;;30.10;21.70;;;;;;;5.05;96.21;101042.98;105619;1255;70079;-50
2023/04/20 06:02:34;;;;;;;30.00;21.40;;;;;;;5.13;96.24;101049.02;105625;1256;73069;-53
2023/04/20 06:05:32;;;;;;;32.00;22.80;;;;;;;5.18;96.19;101047.08;105631;1256;83495;-51
2023/04/20 06:08:49;;;;;;;35.20;23.90;;;;;;;5.24;96.16;101046.03;105569;1254;72357;-48
2023/04/20 06:11:34;;;;;;;41.50;26.80;;;;;;;5.28;96.08;101041.16;105638;1251;70002;-48
2023/04/20 06:14:17;;;;;;;37.80;25.20;;;;;;;5.33;96.19;101036.27;105605;1254;70216;-50
2023/04/20 06:17:19;;;;;;;37.00;25.60;;;;;;;5.43;96.40;101028.24;105602;1254;74128;-49
2023/04/20 06:20:21;;;;;;;39.70;23.40;;;;;;;5.53;96.28;101031.66;105617;1256;83437;-48
2023/04/20 06:23:27;;;;;;;33.00;22.80;;;;;;;5.62;96.00;101026.91;105214;1260;73295;-48
2023/04/20 06:26:24;;;;;;;34.00;22.80;;;;;;;5.70;96.12;101025.13;105325;1257;69994;-51
2023/04/20 06:29:03;;;;;;;37.00;24.00;;;;;;;5.81;96.42;101027.30;105217;1259;70145;-48
2023/04/20 06:31:58;;;;;;;36.60;24.40;;;;;;;5.92;96.42;101027.23;105194;1257;72979;-50
2023/04/20 06:34:49;;;;;;;36.50;25.30;;;;;;;6.05;96.77;101035.48;105185;1259;83281;-48
2023/04/20 06:37:37;;;;;;;;;;;;;;;;;;;;;
2023/04/20 06:40:41;;;;;;;42.00;27.10;;;;;;;6.17;95.96;101045.09;105197;1256;70043;-50
2023/04/20 06:43:48;;;;;;;;;;;;;;;;;;;;;
2023/04/20 06:46:35;;;;;;;44.70;28.20;;;;;;;6.17;95.57;101060.01;105187;1259;74452;-51
2023/04/20 06:49:14;;;;;;;42.40;27.70;;;;;;;6.16;95.45;101061.58;105232;1257;82682;-49
2023/04/20 06:52:33;;;;;;;50.50;29.80;;;;;;;6.20;95.79;101070.39;105184;1259;73727;-49
2023/04/20 06:55:49;;;;;;;49.00;30.30;;;;;;;6.25;95.84;101073.48;105502;1256;69895;-49
2023/04/20 06:58:24;;;;;;;53.00;31.20;;;;;;;6.29;95.69;101080.39;105594;1256;69934;-49
2023/04/20 07:01:02;;;;;;;55.90;30.10;;;;;;;6.32;95.68;101080.19;105585;1257;74196;-50
2023/04/20 07:03:52;;;;;;;;;;;;;;;6.36;95.69;101075.30;105635;1256;83433;-48
2023/04/20 07:06:33;;;;;;;;;;;;;;;;;;;;;
2023/04/20 07:09:22;;;;;;;52.10;30.30;;;;;;;6.46;96.03;101074.84;105732;1263;70083;-47
2023/04/20 07:12:01;;;;;;;;;;;;;;;6.57;96.20;101074.92;105585;1256;69070;-50
2023/04/20 07:14:41;;;;;;;59.00;31.30;;;;;;;6.64;96.14;101071.38;105615;1257;74502;-47
2023/04/20 07:17:19;;;;;;;53.30;30.50;;;;;;;6.71;96.16;101068.71;105625;1257;83392;-53
2023/04/20 07:20:24;;;;;;;54.00;30.90;;;;;;;6.81;96.36;101065.65;105634;1251;74162;-48
2023/04/20 07:23:03;;;;;;;51.30;30.80;;;;;;;6.95;96.50;101064.27;106120;1254;69938;-49
2023/04/20 07:26:16;;;;;;;56.10;31.30;;;;;;;7.10;96.60;101068.96;105723;1254;69924;-50
2023/04/20 07:28:57;;;;;;;53.10;30.50;;;;;;;7.26;96.14;101073.12;105715;1251;72973;-49
2023/04/20 07:31:52;;;;;;;;;;;;;;;7.42;96.09;101076.90;105751;1251;83493;-52
2023/04/20 07:34:28;;;;;;;53.30;29.40;;;;;;;7.50;95.80;101079.41;105703;1254;73584;-48
2023/04/20 07:37:08;;;;;;;53.20;30.20;;;;;;;7.53;95.55;101081.27;105679;1251;69885;-47
2023/04/20 07:39:42;;;;;;;59.00;33.80;;;;;;;7.58;95.62;101079.11;106206;1257;70528;-49
2023/04/20 07:42:14;;;;;;;57.70;33.00;;;;;;;7.64;95.55;101081.30;105812;1251;74161;-47
2023/04/20 07:44:57;;;;;;;56.00;31.60;;;;;;;7.71;95.50;101083.82;105615;1255;84560;-49
2023/04/20 07:47:50;;;;;;;52.50;33.70;;;;;;;7.78;95.29;101078.14;105577;1252;73848;-52
2023/04/20 07:50:25;;;;;;;56.50;34.20;;;;;;;7.89;95.54;101072.59;105893;1251;70001;-52
2023/04/20 07:53:02;;;;;;;61.40;36.80;;;;;;;8.03;95.64;101067.48;105631;1253;69787;-50
2023/04/20 07:55:36;;;;;;;57.10;33.40;;;;;;;8.16;95.51;101065.36;105703;1257;74658;-49
2023/04/20 07:58:05;;;;;;;56.30;33.60;;;;;;;8.32;95.33;101064.41;105630;1256;82260;-51
2023/04/20 08:00:37;;;;;;;51.80;31.30;;;;;;;8.48;95.34;101059.98;105676;1254;73177;-51
2023/04/20 08:03:21;;;;;;;50.80;32.30;;;;;;;8.67;95.53;101062.77;105741;1251;69081;-52
2023/04/20 08:05:56;;;;;;;53.10;31.70;;;;;;;8.91;95.35;101062.83;105560;1252;69014;-53
2023/04/20 08:08:46;;;;;;;49.20;29.80;;;;;;;9.10;94.80;101064.92;105638;1257;74305;-59
2023/04/20 08:11:18;;;;;;;50.90;31.60;;;;;;;9.27;94.78;101061.06;105616;1256;83356;-53
2023/04/20 08:14:09;;;;;;;50.40;31.70;;;;;;;9.36;94.34;101058.26;105684;1252;73167;-58
2023/04/20 08:16:53;;;;;;;49.30;32.90;;;;;;;9.50;94.53;101059.34;105660;1253;69550;-58
2023/04/20 08:19:25;;;;;;;49.30;32.90;;;;;;;9.63;94.16;101054.36;105899;1253;69406;-55
2023/04/20 08:21:59;;;;;;;50.60;36.00;;;;;;;9.75;93.70;101059.66;105715;1254;73110;-54
2023/04/20 08:24:40;;;;;;;53.40;33.60;;;;;;;9.87;94.12;101064.27;105714;1254;83116;-52
2023/04/20 08:27:32;;;;;;;44.00;30.60;;;;;;;9.94;93.18;101060.08;105704;1254;73439;-58
2023/04/20 08:30:07;;;;;;;51.90;34.00;;;;;;;9.92;92.83;101061.36;105701;1254;69131;-57
2023/04/20 08:32:44;;;;;;;50.70;32.90;;;;;;;9.90;92.43;101067.52;105728;1253;69151;-55
2023/04/20 08:35:40;;;;;;;51.10;32.20;;;;;;;9.95;92.94;101064.24;105650;1254;73193;-62
2023/04/20 08:38:20;;;;;;;50.90;31.50;;;;;;;10.05;92.68;101061.05;105696;1254;83425;-55
2023/04/20 08:41:08;;;;;;;44.30;30.90;;;;;;;10.19;92.79;101066.81;105800;1251;73650;-54
2023/04/20 08:43:49;;;;;;;47.70;32.50;;;;;;;10.35;92.95;101064.71;105697;1251;69179;-55
2023/04/20 08:46:32;;;;;;;52.60;34.70;;;;;;;10.55;92.74;101058.60;105690;1251;69079;-55
2023/04/20 08:49:23;;;;;;;55.20;35.50;;;;;;;10.64;92.44;101061.48;105696;1253;73184;-51
2023/04/20 08:52:09;;;;;;;56.80;36.00;;;;;;;10.66;91.62;101058.48;105701;1253;82505;-55
2023/04/20 08:54:51;;;;;;;53.10;35.50;;;;;;;10.62;91.21;101061.55;105773;1252;73801;-54
2023/04/20 08:57:34;;;;;;;53.00;34.20;;;;;;;10.58;91.11;101062.90;105690;1254;69153;-55
2023/04/20 09:00:14;;;;;;;53.00;32.80;;;;;;;10.55;90.86;101060.34;105698;1251;69083;-54
2023/04/20 09:03:00;;;;;;;53.10;32.70;;;;;;;10.50;90.63;101056.27;105693;1252;73968;-55
2023/04/20 09:05:51;;;;;;;53.60;33.20;;;;;;;10.44;90.12;101056.09;105679;1254;83185;-54
2023/04/20 09:08:33;;;;;;;50.70;31.20;;;;;;;10.40;90.08;101059.34;105666;1257;73819;-58
2023/04/20 09:11:37;;;;;;;47.40;31.80;;;;;;;10.50;90.24;101062.55;105705;1251;69091;-55
2023/04/20 09:14:23;;;;;;;50.90;34.50;;;;;;;10.58;90.00;101065.67;105652;1251;69037;-58
2023/04/20 09:17:13;;;;;;;51.80;33.30;;;;;;;10.74;90.46;101065.08;105717;1254;74290;-55
2023/04/20 09:20:05;;;;;;;54.00;34.00;;;;;;;10.89;90.04;101067.30;105728;1252;83226;-56
2023/04/20 09:22:46;;;;;;;46.80;32.60;;;;;;;11.02;90.09;101072.88;105720;1254;72751;-54
2023/04/20 09:25:31;;;;;;;54.80;34.80;;;;;;;11.19;89.86;101075.02;105678;1250;69140;-57
2023/04/20 09:28:23;;;;;;;54.30;35.60;;;;;;;11.22;89.37;101081.39;105615;1256;69186;-56
2023/04/20 09:30:55;;;;;;;58.20;34.30;;;;;;;11.18;89.45;101082.56;105642;1255;74154;-55
2023/04/20 09:33:40;;;;;;;46.80;31.40;;;;;;;11.22;89.53;101083.17;105657;1256;83310;-58
2023/04/20 09:36:25;;;;;;;50.40;30.70;;;;;;;11.29;89.19;101086.98;105558;1257;73880;-60
2023/04/20 09:39:14;;;;;;;49.70;30.50;;;;;;;11.44;89.22;101087.21;105566;1257;69175;-56
2023/04/20 09:41:49;;;;;;;48.80;31.60;;;;;;;11.62;89.17;101083.52;105628;1256;69201;-58
2023/04/20 09:44:28;;;;;;;49.60;34.90;;;;;;;11.78;88.72;101079.20;105717;1257;73125;-56
2023/04/20 09:47:05;;;;;;;50.50;34.90;;;;;;;11.95;88.56;101074.29;105609;1257;81665;-55
2023/04/20 09:49:51;;;;;;;51.20;34.60;;;;;;;12.13;88.37;101072.70;105573;1254;73715;-59
2023/04/20 09:52:29;;;;;;;55.60;35.80;;;;;;;12.26;88.21;101073.14;105508;1251;69200;-56
2023/04/20 09:55:13;;;;;;;51.10;35.20;;;;;;;12.34;87.60;101069.19;105612;1264;69250;-55
2023/04/20 09:57:48;;;;;;;54.60;35.60;;;;;;;12.41;87.41;101067.36;105608;1255;73846;-58
2023/04/20 10:00:26;;;;;;;49.60;34.50;;;;;;;12.53;87.29;101068.36;105647;1257;82428;-55
2023/04/20 10:03:03;;;;;;;50.00;34.30;;;;;;;12.59;86.99;101062.55;105581;1257;73864;-58
2023/04/20 10:05:38;;;;;;;51.10;34.70;;;;;;;12.78;86.72;101063.44;105568;1264;69115;-55
2023/04/20 10:08:19;;;;;;;47.30;33.80;;;;;;;12.93;85.99;101057.46;105609;1252;69538;-58
2023/04/20 10:10:53;;;;;;;46.00;32.60;;;;;;;13.15;86.30;101051.58;105622;1257;74004;-54
2023/04/20 10:13:32;;;;;;;47.80;32.80;;;;;;;13.45;86.22;101049.07;105638;1264;83566;-59
2023/04/20 10:16:15;;;;;;;42.60;30.80;;;;;;;13.65;85.76;101048.66;105650;1255;73856;-56
2023/04/20 10:19:04;;;;;;;43.90;32.30;;;;;;;13.96;85.68;101046.69;105633;1256;69270;-56
2023/04/20 10:21:47;;;;;;;40.00;30.00;;;;;;;14.13;85.02;101045.66;105612;1257;69303;-59
2023/04/20 10:24:30;;;;;;;47.50;32.70;;;;;;;14.37;85.08;101043.41;105775;1257;74011;-58
2023/04/20 10:27:19;;;;;;;43.60;32.90;;;;;;;14.59;83.74;101034.43;105776;1257;83072;-59
2023/04/20 10:29:53;;;;;;;42.30;31.10;;;;;;;14.67;82.99;101033.16;105615;1255;73872;-57
2023/04/20 10:32:26;;;;;;;40.80;30.80;;;;;;;14.93;83.24;101033.10;105757;1251;69188;-58
2023/04/20 10:35:05;;;;;;;40.10;28.70;;;;;;;15.34;83.64;101032.80;105620;1255;69234;-59
2023/04/20 10:37:46;;;;;;;36.70;28.90;;;;;;;15.72;82.56;101024.30;105644;1256;74100;-57
2023/04/20 10:40:15;;;;;;;36.90;28.30;;;;;;;15.96;81.46;101014.35;105612;1255;83512;-55
2023/04/20 10:42:44;;;;;;;36.00;27.90;;;;;;;16.17;80.69;101014.15;105518;1256;72338;-56
2023/04/20 10:45:15;;;;;;;37.70;28.00;;;;;;;16.34;80.27;101008.54;105668;1251;69275;-59
2023/04/20 10:47:44;;;;;;;34.30;27.60;;;;;;;16.58;80.15;101010.08;105625;1256;69291;-59
2023/04/20 10:50:16;;;;;;;36.00;28.60;;;;;;;16.78;79.41;101011.72;105597;1251;73979;-56
2023/04/20 10:52:45;;;;;;;37.00;28.70;;;;;;;16.90;78.35;101011.80;105650;1255;83932;-59
2023/04/20 10:55:19;;;;;;;34.20;28.20;;;;;;;17.06;78.39;101008.30;105554;1251;73626;-55
2023/04/20 10:57:51;;;;;;;37.50;26.80;;;;;;;17.26;77.74;101004.36;105635;1258;69472;-59
2023/04/20 11:00:25;;;;;;;30.40;24.50;;;;;;;17.47;77.16;100998.95;105638;1255;69195;-56
2023/04/20 11:02:57;;;;;;;31.70;26.20;;;;;;;17.57;76.28;100994.83;105627;1256;74147;-59
2023/04/20 11:05:26;;;;;;;33.50;26.50;;;;;;;17.71;75.86;100993.73;105604;1251;83257;-56
2023/04/20 11:08:02;;;;;;;30.70;24.80;;;;;;;17.63;74.36;100990.80;105634;1256;73726;-56
2023/04/20 11:10:41;;;;;;;34.00;27.50;;;;;;;17.69;74.78;100985.68;105619;1251;69064;-57
2023/04/20 11:13:24;;;;;;;33.00;27.10;;;;;;;17.82;74.54;100983.55;105628;1256;69202;-56
2023/04/20 11:15:52;;;;;;;29.50;25.10;;;;;;;18.03;74.24;100982.35;105672;1257;73207;-60
2023/04/20 11:18:23;;;;;;;32.20;26.30;;;;;;;18.26;73.75;100979.00;105553;1251;82509;-60
2023/04/20 11:20:53;;;;;;;29.50;24.20;;;;;;;18.46;73.14;100977.64;105547;1257;71037;-58
2023/04/20 11:23:23;;;;;;;;;;;;;;;18.70;72.92;100979.36;105722;1252;69291;-58
2023/04/20 11:25:56;;;;;;;30.70;24.40;;;;;;;18.96;72.18;100976.17;105893;1253;69275;-56
2023/04/20 11:28:29;;;;;;;29.10;24.00;;;;;;;19.09;70.87;100975.15;105748;1251;74033;-55
2023/04/20 11:30:57;;;;;;;29.70;25.10;;;;;;;19.20;70.83;100975.00;105767;1254;83326;-58
2023/04/20 11:33:30;;;;;;;30.00;24.40;;;;;;;19.20;69.55;100969.86;105543;1253;173778;-59
2023/04/20 11:35:59;;;;;;;29.40;26.10;;;;;;;19.31;69.79;100965.46;105644;1254;69128;-57
2023/04/20 11:38:33;;;;;;;30.50;25.10;;;;;;;19.40;68.90;100968.93;106097;1254;69192;-59
2023/04/20 11:41:06;;;;;;;28.00;24.80;;;;;;;19.18;68.28;100967.70;105843;1253;74207;-61
2023/04/20 11:43:35;;;;;;;27.10;24.00;;;;;;;19.37;68.52;100963.27;105739;1256;83508;-60
2023/04/20 11:46:15;;;;;;;31.20;25.60;;;;;;;19.50;68.04;100958.72;105575;1251;72723;-59
2023/04/20 11:48:47;;;;;;;26.50;22.80;;;;;;;19.45;67.54;100954.83;105657;1254;69189;-59
2023/04/20 11:51:16;;;;;;;26.70;23.40;;;;;;;19.37;67.74;100953.88;105521;1251;69155;-59
2023/04/20 11:53:45;;;;;;;28.40;24.50;;;;;;;19.64;68.07;100951.09;105626;1254;74128;-61
2023/04/20 11:56:13;;;;;;;27.40;23.90;;;;;;;19.93;67.70;100950.23;105627;1251;82491;-57
2023/04/20 11:58:42;;;;;;;27.80;24.10;;;;;;;20.00;66.90;100947.59;105523;1250;72787;-59
2023/04/20 12:01:10;;;;;;;26.10;23.20;;;;;;;20.17;66.41;100945.58;105595;1255;69189;-59
2023/04/20 12:03:38;;;;;;;27.30;23.20;;;;;;;20.34;66.07;100945.48;105704;1262;69199;-59
2023/04/20 12:06:07;;;;;;;28.50;23.40;;;;;;;20.56;65.34;100941.63;105743;1254;73833;-63
2023/04/20 12:08:36;;;;;;;24.70;21.60;;;;;;;20.73;64.87;100940.08;105640;1254;83350;-59
2023/04/20 12:11:04;;;;;;;25.10;21.80;;;;;;;20.71;64.44;100941.26;105787;1257;72609;-60
2023/04/20 12:13:32;;;;;;;26.20;21.50;;;;;;;20.76;64.04;100936.35;105572;1253;69099;-59
2023/04/20 12:16:01;;;;;;;21.80;19.50;;;;;;;20.82;63.87;100931.11;105601;1251;69175;-60
2023/04/20 12:18:29;;;;;;;22.50;18.50;;;;;;;20.92;63.88;100928.74;105564;1251;74393;-60
2023/04/20 12:20:58;;;;;;;22.20;19.80;;;;;;;21.16;63.56;100920.30;105813;1257;83352;-61
2023/04/20 12:23:26;;;;;;;21.20;18.90;;;;;;;21.19;62.79;100917.58;105891;1253;72813;-60
2023/04/20 12:25:55;;;;;;;23.60;20.10;;;;;;;20.85;61.77;100923.81;105823;1251;69061;-60
2023/04/20 12:28:23;;;;;;;19.20;17.10;;;;;;;20.70;61.72;100922.02;105629;1256;69007;-60
2023/04/20 12:30:52;;;;;;;25.30;20.10;;;;;;;20.54;61.40;100919.73;106009;1253;72265;-60
2023/04/20 12:33:20;;;;;;;21.50;18.70;;;;;;;20.48;61.26;100918.77;105685;1254;83328;-62
2023/04/20 12:35:48;;;;;;;18.70;16.80;;;;;;;20.83;62.07;100916.11;105639;1250;73710;-62
2023/04/20 12:38:16;;;;;;;21.20;15.80;;;;;;;21.32;61.55;100911.52;105665;1254;69140;-61
2023/04/20 12:40:45;;;;;;;17.30;15.20;;;;;;;21.26;60.33;100902.84;105734;1251;69077;-66
2023/04/20 12:43:13;;;;;;;21.40;15.60;;;;;;;20.87;59.41;100909.80;106032;1253;74134;-63
2023/04/20 12:45:41;;;;;;;21.10;16.10;;;;;;;20.73;59.21;100910.30;105718;1255;83530;-60
2023/04/20 12:48:10;;;;;;;16.10;14.40;;;;;;;20.50;58.98;100911.52;105816;1254;72378;-63
2023/04/20 12:50:38;;;;;;;17.50;14.50;;;;;;;20.22;59.04;100910.12;105664;1250;69192;-64
2023/04/20 12:53:06;;;;;;;19.20;16.10;;;;;;;19.97;59.10;100910.58;105771;1251;69172;-64
2023/04/20 12:55:35;;;;;;;19.90;16.90;;;;;;;19.96;59.39;100909.75;105630;1250;73852;-60
2023/04/20 12:58:03;;;;;;;21.70;17.70;;;;;;;19.68;58.46;100910.73;105680;1254;82488;-64
2023/04/20 13:00:31;;;;;;;22.20;18.30;;;;;;;19.37;59.12;100903.20;105660;1251;72803;-62
2023/04/20 13:03:00;;;;;;;21.90;17.70;;;;;;;19.25;59.50;100903.10;105678;1249;69187;-62
2023/04/20 13:05:29;;;;;;;21.20;17.00;;;;;;;19.19;59.79;100904.02;105721;1254;69198;-61
2023/04/20 13:07:57;;;;;;;20.70;17.10;;;;;;;19.16;59.93;100900.68;105688;1251;74227;-61
2023/04/20 13:10:26;;;;;;;19.30;16.70;;;;;;;19.12;59.79;100900.95;105613;1254;83491;-62
2023/04/20 13:13:03;;;;;;;21.50;16.20;;;;;;;19.23;59.94;100899.15;105898;1258;73658;-63
2023/04/20 13:15:31;;;;;;;18.70;13.90;;;;;;;19.12;59.14;100896.48;105659;1254;69204;-62
2023/04/20 13:18:05;;;;;;;20.50;14.40;;;;;;;18.96;59.02;100898.77;105729;1254;69550;-60
2023/04/20 13:20:33;;;;;;;17.40;13.40;;;;;;;18.84;59.16;100897.83;105856;1254;73041;-61
2023/04/20 13:23:02;;;;;;;17.20;14.20;;;;;;;18.89;59.16;100899.75;105880;1251;83194;-61
2023/04/20 13:25:32;;;;;;;17.80;13.90;;;;;;;18.91;58.85;100897.35;106165;1253;73915;-63
2023/04/20 13:28:02;;;;;;;17.70;13.60;;;;;;;19.02;59.16;100893.09;106016;1254;69227;-61
2023/04/20 13:30:31;;;;;;;17.00;13.00;;;;;;;19.17;59.16;100893.89;105672;1250;69719;-61
2023/04/20 13:32:59;;;;;;;18.80;13.20;;;;;;;19.40;59.52;100891.11;105870;1251;74304;-60
2023/04/20 13:35:27;;;;;;;17.90;13.70;;;;;;;19.70;59.19;100890.23;105841;1251;83412;-61
2023/04/20 13:37:56;;;;;;;20.30;14.10;;;;;;;19.70;58.44;100889.90;105742;1249;72901;-61
2023/04/20 13:40:24;;;;;;;19.90;13.80;;;;;;;19.41;57.80;100893.19;105723;1250;69177;-61
2023/04/20 13:42:53;;;;;;;17.80;13.00;;;;;;;19.14;57.97;100890.51;105762;1254;69214;-61
2023/04/20 13:45:22;;;;;;;19.00;12.50;;;;;;;18.79;57.63;100896.13;105908;1253;73078;-63
2023/04/20 13:47:53;;;;;;;18.80;11.80;;;;;;;18.47;57.82;100898.48;105868;1251;83270;-62
2023/04/20 13:50:22;;;;;;;17.30;11.00;;;;;;;18.14;58.04;100901.21;105858;1254;73800;-63
2023/04/20 13:52:53;;;;;;;15.50;11.30;;;;;;;17.88;58.31;100897.85;105818;1253;69160;-62
2023/04/20 13:55:21;;;;;;;18.60;11.00;;;;;;;17.67;58.35;100897.44;106104;1250;69100;-61